Time;durP1;ratioP1;P1;durP2;ratioP2;P2;SDS_P1;SDS_P2;PMS_P1;PMS_P2;Temp;Humidity;BMP_temperature;BMP_pressure;BME280_temperature;BME280_humidity;BME280_pressure;Samples;Min_cycle;Max_cycle;Signal;HPM_P1;HPM_P2
2022/08/08 00:00:52;;;;;;;1.52;0.60;;;;;;;;;;5015626;28;20192;-88
2022/08/08 00:04:12;;;;;;;1.23;0.70;;;;;;;;;;5016580;28;20054;-88
2022/08/08 00:06:52;;;;;;;0.88;0.80;;;;;;;;;;5015390;28;20054;-87
2022/08/08 00:09:27;;;;;;;1.67;0.90;;;;;;;;;;5015390;28;20499;-88
2022/08/08 00:12:01;;;;;;;3.75;1.30;;;;;;;;;;5015395;28;20052;-88
2022/08/08 00:14:35;;;;;;;2.47;0.75;;;;;;;;;;5015837;28;20045;-88
2022/08/08 00:17:31;;;;;;;3.22;1.30;;;;;;;;;;5015396;28;20133;-88
2022/08/08 00:20:28;;;;;;;1.60;0.57;;;;;;;;;;5015332;28;20049;-88
2022/08/08 00:22:59;;;;;;;1.15;0.70;;;;;;;;;;5015239;28;20053;-88
2022/08/08 00:25:43;;;;;;;1.60;0.70;;;;;;;;;;5016877;28;20388;-88
2022/08/08 00:28:18;;;;;;;2.13;0.77;;;;;;;;;;5015850;28;20053;-87
2022/08/08 00:31:04;;;;;;;4.25;1.02;;;;;;;;;;5015118;28;20096;-88
2022/08/08 00:35:09;;;;;;;2.10;0.80;;;;;;;;;;5015296;28;20054;-88
2022/08/08 00:36:51;;;;;;;1.75;0.70;;;;;;;;;;5015924;28;20108;-89
2022/08/08 00:39:25;;;;;;;1.40;0.73;;;;;;;;;;5014855;28;20558;-89
2022/08/08 00:42:31;;;;;;;2.65;1.00;;;;;;;;;;5014636;28;20069;-89
2022/08/08 00:45:02;;;;;;;1.90;0.70;;;;;;;;;;5014960;28;20052;-88
2022/08/08 00:48:05;;;;;;;3.55;1.00;;;;;;;;;;5014785;28;20491;-88
2022/08/08 00:51:12;;;;;;;1.15;1.00;;;;;;;;;;5014978;28;20052;-87
2022/08/08 00:54:08;;;;;;;2.85;0.90;;;;;;;;;;5014595;28;20046;-88
2022/08/08 00:57:00;;;;;;;5.15;0.80;;;;;;;;;;5014551;28;20061;-87
2022/08/08 00:59:48;;;;;;;1.02;0.93;;;;;;;;;;5015452;28;20072;-88
2022/08/08 01:02:33;;;;;;;1.30;0.80;;;;;;;;;;5014482;28;20124;-88
2022/08/08 01:05:39;;;;;;;0.80;0.80;;;;;;;;;;5014688;28;20479;-88
2022/08/08 01:08:41;;;;;;;1.20;1.10;;;;;;;;;;5014203;28;20052;-88
2022/08/08 01:11:20;;;;;;;1.15;0.90;;;;;;;;;;5014366;28;20049;-88
2022/08/08 01:14:00;;;;;;;1.50;1.02;;;;;;;;;;5014410;28;20053;-88
2022/08/08 01:16:33;;;;;;;1.15;0.93;;;;;;;;;;5015381;28;20104;-87
2022/08/08 01:19:21;;;;;;;0.80;0.80;;;;;;;;;;5014363;28;20049;-87
2022/08/08 01:22:35;;;;;;;0.98;0.98;;;;;;;;;;5015333;28;20052;-87
2022/08/08 01:25:20;;;;;;;1.70;0.80;;;;;;;;;;5014088;28;20133;-87
2022/08/08 01:28:03;;;;;;;1.67;0.80;;;;;;;;;;5013874;28;20046;-88
2022/08/08 01:31:00;;;;;;;1.58;1.00;;;;;;;;;;5013827;28;20042;-89
2022/08/08 01:33:31;;;;;;;0.90;0.90;;;;;;;;;;5010018;28;20056;-88
2022/08/08 01:36:37;;;;;;;2.10;1.00;;;;;;;;;;5013826;28;20132;-87
2022/08/08 01:39:12;;;;;;;2.15;0.90;;;;;;;;;;5013824;28;20389;-87
2022/08/08 01:41:50;;;;;;;;;;;;;;;;;;5014576;28;20491;-87
2022/08/08 01:44:25;;;;;;;1.42;1.02;;;;;;;;;;5014344;28;20346;-87
2022/08/08 01:47:03;;;;;;;2.13;1.00;;;;;;;;;;5013551;28;20503;-88
2022/08/08 01:50:09;;;;;;;0.95;0.95;;;;;;;;;;5013807;28;20562;-87
2022/08/08 01:52:45;;;;;;;3.45;1.23;;;;;;;;;;5013363;28;20132;-87
2022/08/08 01:55:39;;;;;;;3.28;1.38;;;;;;;;;;5013082;28;20046;-88
2022/08/08 01:58:46;;;;;;;1.02;0.93;;;;;;;;;;5013201;28;20049;-88
2022/08/08 02:01:34;;;;;;;2.25;1.02;;;;;;;;;;5009828;28;20103;-88
2022/08/08 02:04:40;;;;;;;1.65;1.00;;;;;;;;;;5013417;28;20422;-87
2022/08/08 02:07:19;;;;;;;1.00;1.00;;;;;;;;;;5013269;28;20100;-87
2022/08/08 02:09:51;;;;;;;2.58;1.15;;;;;;;;;;5013154;28;20046;-88
2022/08/08 02:12:56;;;;;;;3.38;1.02;;;;;;;;;;5013284;28;20085;-88
2022/08/08 02:15:33;;;;;;;1.75;1.17;;;;;;;;;;5013050;28;20487;-88
2022/08/08 02:18:21;;;;;;;1.52;1.20;;;;;;;;;;5013115;28;20084;-88
2022/08/08 02:24:14;;;;;;;1.48;1.25;;;;;;;;;;5014063;28;20100;-88
2022/08/08 02:26:50;;;;;;;1.40;1.20;;;;;;;;;;5014274;28;20073;-88
2022/08/08 02:29:40;;;;;;;1.00;1.00;;;;;;;;;;5012794;28;20049;-87
2022/08/08 02:32:31;;;;;;;2.13;1.40;;;;;;;;;;5012881;28;20073;-88
2022/08/08 02:35:30;;;;;;;1.25;1.10;;;;;;;;;;5012897;28;20057;-87
2022/08/08 02:38:27;;;;;;;1.20;1.10;;;;;;;;;;5011551;28;20578;-89
2022/08/08 02:41:08;;;;;;;1.20;1.20;;;;;;;;;;5012706;28;20073;-87
2022/08/08 02:44:15;;;;;;;1.10;1.10;;;;;;;;;;5013000;28;20046;-88
2022/08/08 02:47:21;;;;;;;1.33;1.23;;;;;;;;;;5012625;28;20056;-88
2022/08/08 02:49:48;;;;;;;1.50;1.40;;;;;;;;;;5012698;28;20409;-87
2022/08/08 02:52:29;;;;;;;1.90;1.30;;;;;;;;;;5012529;28;20574;-87
2022/08/08 02:55:13;;;;;;;4.07;1.42;;;;;;;;;;5012680;28;20462;-87
2022/08/08 02:58:06;;;;;;;1.00;1.00;;;;;;;;;;5012744;28;20049;-87
2022/08/08 03:00:45;;;;;;;3.67;3.33;;;;;;;;;;5012840;28;20053;-87
2022/08/08 03:03:35;;;;;;;6.68;5.53;;;;;;;;;;5013544;28;20134;-88
2022/08/08 03:06:30;;;;;;;1.73;1.63;;;;;;;;;;5012533;28;20136;-89
2022/08/08 03:09:24;;;;;;;7.95;6.47;;;;;;;;;;5012587;28;20053;-87
2022/08/08 03:12:19;;;;;;;2.75;2.25;;;;;;;;;;5012335;28;20054;-87
2022/08/08 03:15:34;;;;;;;3.85;2.28;;;;;;;;;;5013546;28;20068;-87
2022/08/08 03:18:24;;;;;;;3.17;2.92;;;;;;;;;;5013497;28;20060;-88
2022/08/08 03:20:57;;;;;;;3.53;3.08;;;;;;;;;;4997325;28;20392;-87
2022/08/08 03:23:29;;;;;;;2.47;1.90;;;;;;;;;;5012339;28;20086;-87
2022/08/08 03:26:28;;;;;;;2.00;1.90;;;;;;;;;;5012109;28;20057;-87
2022/08/08 03:28:59;;;;;;;2.90;2.10;;;;;;;;;;5012987;28;20042;-87
2022/08/08 03:34:32;;;;;;;1.50;1.30;;;;;;;;;;5013833;28;20125;-88
2022/08/08 03:37:00;;;;;;;2.92;1.90;;;;;;;;;;5014015;28;20057;-88
2022/08/08 03:39:46;;;;;;;1.60;1.60;;;;;;;;;;5013177;28;20060;-88
2022/08/08 03:42:28;;;;;;;2.10;2.00;;;;;;;;;;5012518;28;20136;-88
2022/08/08 03:44:57;;;;;;;2.17;1.40;;;;;;;;;;5012223;28;20058;-87
2022/08/08 03:47:25;;;;;;;1.67;1.40;;;;;;;;;;5011628;28;20061;-87
2022/08/08 03:50:15;;;;;;;3.10;1.60;;;;;;;;;;5013092;28;20049;-87
2022/08/08 03:52:50;;;;;;;1.30;1.30;;;;;;;;;;5012973;28;20042;-88
2022/08/08 03:55:18;;;;;;;3.05;1.63;;;;;;;;;;5011794;28;20550;-89
2022/08/08 03:58:05;;;;;;;1.75;1.60;;;;;;;;;;5012989;28;20128;-88
2022/08/08 04:00:54;;;;;;;2.70;1.67;;;;;;;;;;5012151;28;20072;-89
2022/08/08 04:03:44;;;;;;;6.18;2.75;;;;;;;;;;5012133;28;20056;-88
2022/08/08 04:06:25;;;;;;;3.80;2.85;;;;;;;;;;5012441;28;20492;-88
2022/08/08 04:08:57;;;;;;;5.80;2.70;;;;;;;;;;5011672;28;20454;-88
2022/08/08 04:11:33;;;;;;;2.15;2.00;;;;;;;;;;5011862;28;20439;-87
2022/08/08 04:14:20;;;;;;;1.95;1.80;;;;;;;;;;5011961;28;20056;-86
2022/08/08 04:17:02;;;;;;;3.47;1.88;;;;;;;;;;5012089;28;20581;-87
2022/08/08 04:19:32;;;;;;;1.90;1.77;;;;;;;;;;5016045;28;20180;-89
2022/08/08 04:22:03;;;;;;;2.92;1.88;;;;;;;;;;5015236;28;20053;-88
2022/08/08 04:24:30;;;;;;;4.75;1.85;;;;;;;;;;5016219;28;20160;-87
2022/08/08 04:26:58;;;;;;;3.17;2.20;;;;;;;;;;5016088;28;20045;-87
2022/08/08 04:29:27;;;;;;;2.30;2.08;;;;;;;;;;5015159;28;20059;-88
2022/08/08 04:32:04;;;;;;;4.78;1.73;;;;;;;;;;5015136;28;20054;-88
2022/08/08 04:34:33;;;;;;;2.08;1.98;;;;;;;;;;5016436;28;20415;-88
2022/08/08 04:37:20;;;;;;;2.20;1.98;;;;;;;;;;5016039;28;20068;-88
2022/08/08 04:39:58;;;;;;;3.30;1.92;;;;;;;;;;5015511;28;20046;-88
2022/08/08 04:42:33;;;;;;;3.88;2.08;;;;;;;;;;5015064;28;20054;-88
2022/08/08 04:45:03;;;;;;;5.43;1.90;;;;;;;;;;5014913;28;20050;-88
2022/08/08 04:47:31;;;;;;;1.50;1.40;;;;;;;;;;5014818;28;20416;-88
2022/08/08 04:50:02;;;;;;;1.55;1.45;;;;;;;;;;5016184;28;20533;-87
2022/08/08 04:52:32;;;;;;;1.65;1.50;;;;;;;;;;5014984;28;20152;-87
2022/08/08 04:55:01;;;;;;;3.03;1.80;;;;;;;;;;5014570;28;20068;-87
2022/08/08 04:57:31;;;;;;;2.20;2.00;;;;;;;;;;5014542;28;20072;-87
2022/08/08 05:00:00;;;;;;;8.30;2.13;;;;;;;;;;5014329;28;20081;-87
2022/08/08 05:02:28;;;;;;;5.50;2.50;;;;;;;;;;5014347;28;20474;-86
2022/08/08 05:04:57;;;;;;;2.30;2.20;;;;;;;;;;5014560;28;20073;-88
2022/08/08 05:07:25;;;;;;;2.80;2.60;;;;;;;;;;5014348;28;20085;-87
2022/08/08 05:10:09;;;;;;;2.40;2.20;;;;;;;;;;5014835;28;20049;-88
2022/08/08 05:12:39;;;;;;;3.03;2.13;;;;;;;;;;5014328;28;20054;-87
2022/08/08 05:15:26;;;;;;;3.17;2.05;;;;;;;;;;5014601;28;20050;-87
2022/08/08 05:18:13;;;;;;;2.58;1.63;;;;;;;;;;5015420;28;20056;-87
2022/08/08 05:20:41;;;;;;;2.83;1.35;;;;;;;;;;5015653;28;20049;-87
2022/08/08 05:23:18;;;;;;;3.88;1.60;;;;;;;;;;5014288;28;20049;-88
2022/08/08 05:25:48;;;;;;;3.72;1.40;;;;;;;;;;5014149;28;20185;-88
2022/08/08 05:28:15;;;;;;;1.85;0.90;;;;;;;;;;5013686;28;20103;-87
2022/08/08 05:31:03;;;;;;;1.85;1.00;;;;;;;;;;5014348;28;20050;-87
2022/08/08 05:33:50;;;;;;;6.45;1.30;;;;;;;;;;5013991;28;20491;-87
2022/08/08 05:36:23;;;;;;;5.05;1.17;;;;;;;;;;5014941;28;20082;-86
2022/08/08 05:38:56;;;;;;;0.98;0.98;;;;;;;;;;5014079;28;20060;-86
2022/08/08 05:41:25;;;;;;;2.97;0.90;;;;;;;;;;5013567;28;20495;-87
2022/08/08 05:43:58;;;;;;;1.52;0.90;;;;;;;;;;5013575;28;20056;-87
2022/08/08 05:46:31;;;;;;;2.15;0.90;;;;;;;;;;5013661;28;20050;-88
2022/08/08 05:48:58;;;;;;;1.73;0.85;;;;;;;;;;5013545;28;20057;-87
2022/08/08 05:51:26;;;;;;;1.02;0.65;;;;;;;;;;5013513;28;20480;-87
2022/08/08 05:54:14;;;;;;;2.78;1.05;;;;;;;;;;5013749;28;20050;-87
2022/08/08 05:57:01;;;;;;;6.22;1.13;;;;;;;;;;5013411;28;20052;-85
2022/08/08 05:59:35;;;;;;;4.05;0.98;;;;;;;;;;5013208;28;20062;-85
2022/08/08 06:05:14;;;;;;;5.65;1.10;;;;;;;;;;5014365;28;20088;-86
2022/08/08 06:08:01;;;;;;;20.80;2.17;;;;;;;;;;5013170;28;20050;-87
2022/08/08 06:10:38;;;;;;;13.27;1.77;;;;;;;;;;5013308;28;20484;-86
2022/08/08 06:13:07;;;;;;;6.50;1.75;;;;;;;;;;5012968;28;20050;-86
2022/08/08 06:15:35;;;;;;;4.80;2.42;;;;;;;;;;5013015;28;20538;-86
2022/08/08 06:18:20;;;;;;;9.52;2.10;;;;;;;;;;5013037;28;20046;-86
2022/08/08 06:20:51;;;;;;;9.38;2.30;;;;;;;;;;5013178;28;20112;-87
2022/08/08 06:23:22;;;;;;;6.30;2.25;;;;;;;;;;5012926;28;20060;-87
2022/08/08 06:26:10;;;;;;;18.27;8.68;;;;;;;;;;5013277;28;20130;-85
2022/08/08 06:29:05;;;;;;;45.35;18.05;;;;;;;;;;5012920;28;20501;-86
2022/08/08 06:31:56;;;;;;;35.88;12.20;;;;;;;;;;5012746;28;20050;-86
2022/08/08 06:34:39;;;;;;;27.90;9.18;;;;;;;;;;5012970;28;20455;-87
2022/08/08 06:37:09;;;;;;;42.08;13.05;;;;;;;;;;5012857;28;20072;-87
2022/08/08 06:40:01;;;;;;;41.38;10.63;;;;;;;;;;5012858;28;20049;-88
2022/08/08 06:42:30;;;;;;;;;;;;;;;;;;5012728;28;20075;-86
2022/08/08 06:44:57;;;;;;;41.75;7.75;;;;;;;;;;5012676;28;19921;-87
2022/08/08 06:47:25;;;;;;;24.15;4.47;;;;;;;;;;5012661;28;20050;-86
2022/08/08 06:49:59;;;;;;;34.47;4.88;;;;;;;;;;5012955;28;20072;-87
2022/08/08 06:52:31;;;;;;;19.45;4.88;;;;;;;;;;5013905;28;20042;-86
2022/08/08 06:55:00;;;;;;;32.95;7.13;;;;;;;;;;5015384;28;20054;-87
2022/08/08 06:57:27;;;;;;;24.58;6.32;;;;;;;;;;5012281;28;20487;-88
2022/08/08 06:59:55;;;;;;;26.58;5.78;;;;;;;;;;5012429;28;20054;-87
2022/08/08 07:02:41;;;;;;;23.88;5.57;;;;;;;;;;5012583;28;20104;-87
2022/08/08 07:05:16;;;;;;;22.13;4.35;;;;;;;;;;5012300;28;20053;-86
2022/08/08 07:08:02;;;;;;;20.83;4.35;;;;;;;;;;5012476;28;20054;-86
2022/08/08 07:10:33;;;;;;;14.88;3.00;;;;;;;;;;5013062;28;20045;-86
2022/08/08 07:13:05;;;;;;;17.20;2.50;;;;;;;;;;5012632;28;20498;-88
2022/08/08 07:15:36;;;;;;;5.32;1.20;;;;;;;;;;5012189;28;20579;-87
2022/08/08 07:18:43;;;;;;;6.35;1.42;;;;;;;;;;5012491;28;20392;-87
2022/08/08 07:21:17;;;;;;;4.60;1.30;;;;;;;;;;5012307;28;20053;-87
2022/08/08 07:23:46;;;;;;;4.82;0.93;;;;;;;;;;5012331;28;20050;-87
2022/08/08 07:26:32;;;;;;;1.95;0.80;;;;;;;;;;5012430;28;20065;-87
2022/08/08 07:29:03;;;;;;;2.53;0.50;;;;;;;;;;5012160;28;20503;-86
2022/08/08 07:31:32;;;;;;;1.17;0.70;;;;;;;;;;5011784;28;20054;-85
2022/08/08 07:34:02;;;;;;;7.25;1.00;;;;;;;;;;5012176;28;20089;-87
2022/08/08 07:36:35;;;;;;;;;;;;;;;;;;5012466;28;20046;-87
2022/08/08 07:39:02;;;;;;;1.70;0.77;;;;;;;;;;5012154;28;20394;-88
2022/08/08 07:41:31;;;;;;;2.30;0.50;;;;;;;;;;5012311;28;20100;-87
2022/08/08 07:44:19;;;;;;;2.47;0.70;;;;;;;;;;5012300;28;20054;-86
2022/08/08 07:47:06;;;;;;;5.05;0.50;;;;;;;;;;5012181;28;20054;-87
2022/08/08 07:49:33;;;;;;;5.55;0.80;;;;;;;;;;5011894;28;20088;-87
2022/08/08 07:52:02;;;;;;;2.85;0.50;;;;;;;;;;5013490;28;20049;-87
2022/08/08 07:54:37;;;;;;;3.63;0.70;;;;;;;;;;5015779;28;20082;-86
2022/08/08 07:57:15;;;;;;;2.00;0.60;;;;;;;;;;5015594;28;20054;-87
2022/08/08 08:00:03;;;;;;;3.53;0.70;;;;;;;;;;5015697;28;20081;-87
2022/08/08 08:02:43;;;;;;;2.33;0.65;;;;;;;;;;5015451;28;20050;-87
2022/08/08 08:05:15;;;;;;;2.00;0.50;;;;;;;;;;5015808;28;20119;-88
2022/08/08 08:07:42;;;;;;;2.95;0.70;;;;;;;;;;5016365;28;20104;-87
2022/08/08 08:10:14;;;;;;;4.82;0.77;;;;;;;;;;5016591;28;20069;-88
2022/08/08 08:12:47;;;;;;;4.95;0.93;;;;;;;;;;5016477;28;20045;-87
2022/08/08 08:15:18;;;;;;;4.40;0.70;;;;;;;;;;5015588;28;20046;-87
2022/08/08 08:17:55;;;;;;;3.33;0.90;;;;;;;;;;5015522;28;20065;-88
2022/08/08 08:20:27;;;;;;;2.70;0.40;;;;;;;;;;5015317;28;20077;-87
2022/08/08 08:22:56;;;;;;;;;;;;;;;;;;5015875;28;20046;-87
2022/08/08 08:25:24;;;;;;;2.95;0.65;;;;;;;;;;5015383;28;19933;-88
2022/08/08 08:28:09;;;;;;;2.03;0.40;;;;;;;;;;5015685;28;20100;-85
2022/08/08 08:30:48;;;;;;;6.28;0.80;;;;;;;;;;5015327;28;20046;-87
2022/08/08 08:33:16;;;;;;;2.45;0.68;;;;;;;;;;5016412;28;20054;-86
2022/08/08 08:35:45;;;;;;;1.42;0.70;;;;;;;;;;5015229;28;20525;-87
2022/08/08 08:38:33;;;;;;;2.50;0.50;;;;;;;;;;5016063;28;20133;-86
2022/08/08 08:41:00;;;;;;;1.80;0.60;;;;;;;;;;5015014;28;20050;-87
2022/08/08 08:43:40;;;;;;;1.58;0.45;;;;;;;;;;5014753;28;20129;-87
2022/08/08 08:46:12;;;;;;;0.93;0.40;;;;;;;;;;5016390;28;20074;-87
2022/08/08 08:48:45;;;;;;;1.05;0.50;;;;;;;;;;5014994;28;20111;-87
2022/08/08 08:51:16;;;;;;;1.23;0.70;;;;;;;;;;5014699;28;20057;-87
2022/08/08 08:53:51;;;;;;;1.83;0.50;;;;;;;;;;5014828;28;20058;-85
2022/08/08 08:56:27;;;;;;;1.98;0.45;;;;;;;;;;5014248;28;20053;-87
2022/08/08 08:58:56;;;;;;;2.10;0.50;;;;;;;;;;5014616;28;20046;-87
2022/08/08 09:01:26;;;;;;;3.42;0.80;;;;;;;;;;5015027;28;20104;-88
2022/08/08 09:03:56;;;;;;;0.68;0.60;;;;;;;;;;5013401;28;20053;-87
2022/08/08 09:06:34;;;;;;;5.45;0.60;;;;;;;;;;5014838;28;20073;-87
2022/08/08 09:09:25;;;;;;;1.38;0.52;;;;;;;;;;5015768;28;20092;-86
2022/08/08 09:12:14;;;;;;;3.03;0.70;;;;;;;;;;5015151;28;20415;-86
2022/08/08 09:14:41;;;;;;;3.00;0.68;;;;;;;;;;5015104;28;20049;-87
2022/08/08 09:17:12;;;;;;;2.42;0.50;;;;;;;;;;5014391;28;20045;-86
2022/08/08 09:19:45;;;;;;;0.47;0.47;;;;;;;;;;5014394;28;20046;-86
2022/08/08 09:22:34;;;;;;;1.08;0.55;;;;;;;;;;4995063;28;20050;-87
2022/08/08 09:25:02;;;;;;;3.22;0.60;;;;;;;;;;4994790;28;20526;-89
2022/08/08 09:27:30;;;;;;;5.18;0.50;;;;;;;;;;4995213;28;20137;-85
2022/08/08 09:30:17;;;;;;;1.00;0.52;;;;;;;;;;4995936;28;20061;-87
2022/08/08 09:32:53;;;;;;;3.55;0.90;;;;;;;;;;4994631;28;20051;-87
2022/08/08 09:35:44;;;;;;;1.80;0.80;;;;;;;;;;4995039;28;20050;-87
2022/08/08 09:38:36;;;;;;;3.17;0.63;;;;;;;;;;4994633;28;20058;-90
2022/08/08 09:41:34;;;;;;;1.33;0.63;;;;;;;;;;4994674;28;20141;-87
2022/08/08 09:44:47;;;;;;;2.90;0.70;;;;;;;;;;4994651;28;20054;-88
2022/08/08 09:47:15;;;;;;;0.40;0.30;;;;;;;;;;4994203;28;20046;-87
2022/08/08 09:50:07;;;;;;;2.30;0.40;;;;;;;;;;4994453;28;20053;-87
2022/08/08 09:52:49;;;;;;;1.83;0.50;;;;;;;;;;4994033;28;20050;-85
2022/08/08 09:55:36;;;;;;;4.65;0.45;;;;;;;;;;4994378;28;20153;-87
2022/08/08 09:58:24;;;;;;;2.30;0.50;;;;;;;;;;4995935;28;20113;-84
2022/08/08 10:01:08;;;;;;;0.70;0.40;;;;;;;;;;5000851;28;20054;-85
2022/08/08 10:03:57;;;;;;;1.50;0.73;;;;;;;;;;4996176;28;20082;-87
2022/08/08 10:06:31;;;;;;;3.08;0.50;;;;;;;;;;5000308;28;20108;-83
2022/08/08 10:09:03;;;;;;;3.15;0.50;;;;;;;;;;4997787;28;20079;-84
2022/08/08 10:11:30;;;;;;;2.35;0.70;;;;;;;;;;4999611;28;20385;-86
2022/08/08 10:14:20;;;;;;;0.38;0.38;;;;;;;;;;4998032;28;20061;-87
2022/08/08 10:17:09;;;;;;;0.88;0.40;;;;;;;;;;4999620;28;20057;-86
2022/08/08 10:19:57;;;;;;;2.40;0.57;;;;;;;;;;4998623;28;20169;-85
2022/08/08 10:22:27;;;;;;;2.28;0.60;;;;;;;;;;5002587;28;20046;-86
2022/08/08 10:24:59;;;;;;;1.60;0.50;;;;;;;;;;5001023;28;20043;-85
2022/08/08 10:27:28;;;;;;;1.48;0.40;;;;;;;;;;5000388;28;20055;-86
2022/08/08 10:30:01;;;;;;;1.23;0.60;;;;;;;;;;4998910;28;20046;-86
2022/08/08 10:32:31;;;;;;;4.90;0.80;;;;;;;;;;4999045;28;20051;-85
2022/08/08 10:35:05;;;;;;;1.92;0.45;;;;;;;;;;4999731;28;20138;-85
2022/08/08 10:38:05;;;;;;;5.65;0.60;;;;;;;;;;4997094;28;20050;-85
2022/08/08 10:40:36;;;;;;;2.40;0.47;;;;;;;;;;4999404;28;20050;-87
2022/08/08 10:43:04;;;;;;;2.10;0.75;;;;;;;;;;4998795;28;20050;-84
2022/08/08 10:45:43;;;;;;;10.35;1.40;;;;;;;;;;4996733;28;20054;-87
2022/08/08 10:48:34;;;;;;;1.67;0.63;;;;;;;;;;4998582;28;20081;-88
2022/08/08 10:51:26;;;;;;;1.30;0.60;;;;;;;;;;4998960;28;20133;-88
2022/08/08 10:54:06;;;;;;;2.67;0.50;;;;;;;;;;4998211;28;20504;-88
2022/08/08 10:56:43;;;;;;;1.27;0.60;;;;;;;;;;4998355;28;20404;-86
2022/08/08 10:59:22;;;;;;;0.68;0.57;;;;;;;;;;4999763;28;20076;-82
2022/08/08 11:01:49;;;;;;;1.48;0.80;;;;;;;;;;5001255;28;20506;-84
2022/08/08 11:04:23;;;;;;;1.67;0.60;;;;;;;;;;5003106;28;20047;-85
2022/08/08 11:06:59;;;;;;;2.28;0.98;;;;;;;;;;4999498;28;20427;-85
2022/08/08 11:09:45;;;;;;;3.40;0.50;;;;;;;;;;5005861;28;20065;-84
2022/08/08 11:12:13;;;;;;;2.60;0.50;;;;;;;;;;4999544;28;20081;-84
2022/08/08 11:14:48;;;;;;;1.23;0.38;;;;;;;;;;4996521;28;20060;-84
2022/08/08 11:17:16;;;;;;;0.65;0.60;;;;;;;;;;4995770;28;20046;-86
2022/08/08 11:20:04;;;;;;;0.47;0.40;;;;;;;;;;4992640;28;20092;-86
2022/08/08 11:22:39;;;;;;;7.70;1.75;;;;;;;;;;4992416;28;20458;-85
2022/08/08 11:25:06;;;;;;;1.75;0.80;;;;;;;;;;4993014;28;20492;-85
2022/08/08 11:27:46;;;;;;;3.97;0.50;;;;;;;;;;4991913;28;20097;-86
2022/08/08 11:30:18;;;;;;;;;;;;;;;;;;4993288;28;20060;-85
2022/08/08 11:32:54;;;;;;;0.68;0.50;;;;;;;;;;4992837;28;19960;-87
2022/08/08 11:35:22;;;;;;;1.83;0.75;;;;;;;;;;4992639;28;20096;-87
2022/08/08 11:38:09;;;;;;;0.88;0.52;;;;;;;;;;4992870;28;20054;-85
2022/08/08 11:40:56;;;;;;;2.33;0.80;;;;;;;;;;4992502;28;20050;-86
2022/08/08 11:43:24;;;;;;;1.63;0.65;;;;;;;;;;4992876;28;20053;-89
2022/08/08 11:46:05;;;;;;;2.10;0.80;;;;;;;;;;4992909;28;20050;-85
2022/08/08 11:48:44;;;;;;;1.73;0.50;;;;;;;;;;4992277;28;20057;-85
2022/08/08 11:51:15;;;;;;;1.17;0.50;;;;;;;;;;4992773;28;20100;-85
2022/08/08 11:54:02;;;;;;;0.50;0.50;;;;;;;;;;4993780;28;20053;-88
2022/08/08 11:56:34;;;;;;;1.10;0.63;;;;;;;;;;4993611;28;20066;-85
2022/08/08 11:59:09;;;;;;;0.75;0.50;;;;;;;;;;4992236;28;20134;-88
2022/08/08 12:01:37;;;;;;;3.05;0.70;;;;;;;;;;4992884;28;20046;-85
2022/08/08 12:04:07;;;;;;;1.63;0.73;;;;;;;;;;4993225;28;20082;-86
2022/08/08 12:06:34;;;;;;;2.40;0.65;;;;;;;;;;4993317;28;20058;-86
2022/08/08 12:09:07;;;;;;;1.30;0.60;;;;;;;;;;4993567;28;20057;-87
2022/08/08 12:11:39;;;;;;;1.08;0.57;;;;;;;;;;4992297;28;20496;-87
2022/08/08 12:14:06;;;;;;;0.85;0.52;;;;;;;;;;5001341;23;20065;-87
2022/08/08 12:16:46;;;;;;;1.48;0.60;;;;;;;;;;4993860;28;20054;-90
2022/08/08 12:19:15;;;;;;;3.47;0.60;;;;;;;;;;4994050;28;20105;-87
2022/08/08 12:22:07;;;;;;;1.13;0.82;;;;;;;;;;4993587;28;20058;-89
2022/08/08 12:24:48;;;;;;;0.80;0.70;;;;;;;;;;4992684;28;20125;-88
2022/08/08 12:27:22;;;;;;;3.60;0.70;;;;;;;;;;4992858;28;20054;-89
2022/08/08 12:29:54;;;;;;;5.82;0.60;;;;;;;;;;4992960;28;20050;-89
2022/08/08 12:32:21;;;;;;;2.85;0.80;;;;;;;;;;4992741;28;20065;-88
2022/08/08 12:34:54;;;;;;;0.75;0.52;;;;;;;;;;4996801;28;20077;-87
2022/08/08 12:37:38;;;;;;;9.30;1.17;;;;;;;;;;4993842;28;20050;-87
2022/08/08 12:40:17;;;;;;;4.28;0.77;;;;;;;;;;4996529;28;20495;-92
2022/08/08 12:42:51;;;;;;;4.85;0.80;;;;;;;;;;4997169;28;20495;-89
2022/08/08 12:45:18;;;;;;;2.17;0.70;;;;;;;;;;4995822;28;20542;-90
2022/08/08 12:48:07;;;;;;;1.25;0.70;;;;;;;;;;4997224;28;20050;-90
2022/08/08 12:50:55;;;;;;;0.70;0.70;;;;;;;;;;4996527;28;20050;-88
2022/08/08 12:53:25;;;;;;;2.67;0.73;;;;;;;;;;4996632;28;20104;-89
2022/08/08 12:56:03;;;;;;;2.05;0.50;;;;;;;;;;4996680;28;20380;-88
2022/08/08 12:58:45;;;;;;;1.15;0.60;;;;;;;;;;4996454;28;20053;-87
2022/08/08 13:01:13;;;;;;;4.57;0.75;;;;;;;;;;4996166;28;20093;-88
2022/08/08 13:03:45;;;;;;;2.38;0.65;;;;;;;;;;4995313;28;20046;-86
2022/08/08 13:06:19;;;;;;;1.30;0.50;;;;;;;;;;4995865;28;20104;-87
2022/08/08 13:08:55;;;;;;;1.48;0.70;;;;;;;;;;4995815;28;20483;-89
2022/08/08 13:11:24;;;;;;;0.70;0.45;;;;;;;;;;4995498;28;20499;-92
2022/08/08 13:14:14;;;;;;;1.42;0.60;;;;;;;;;;4995340;28;20133;-93
2022/08/08 13:16:42;;;;;;;6.70;0.75;;;;;;;;;;4995704;28;20102;-89
2022/08/08 13:19:15;;;;;;;2.28;0.80;;;;;;;;;;4995679;28;20078;-88
2022/08/08 13:21:47;;;;;;;1.08;0.60;;;;;;;;;;4996005;28;20458;-89
2022/08/08 13:24:31;;;;;;;3.33;0.60;;;;;;;;;;4995280;28;20054;-87
2022/08/08 13:27:13;;;;;;;1.02;0.50;;;;;;;;;;4996584;28;20054;-88
2022/08/08 13:29:57;;;;;;;0.70;0.52;;;;;;;;;;4995515;28;20050;-89
2022/08/08 13:32:26;;;;;;;1.15;0.80;;;;;;;;;;4995552;28;20046;-88
2022/08/08 13:34:55;;;;;;;1.63;0.70;;;;;;;;;;4994876;28;20074;-90
2022/08/08 13:37:24;;;;;;;0.65;0.60;;;;;;;;;;4995383;28;20058;-89
2022/08/08 13:40:11;;;;;;;1.27;0.85;;;;;;;;;;4996059;28;20050;-88
2022/08/08 13:42:52;;;;;;;4.70;0.82;;;;;;;;;;4995782;28;20074;-91
2022/08/08 13:45:20;;;;;;;1.88;0.57;;;;;;;;;;4994495;28;20137;-88
2022/08/08 13:47:57;;;;;;;0.95;0.52;;;;;;;;;;4995076;28;20153;-86
2022/08/08 13:50:25;;;;;;;1.80;0.70;;;;;;;;;;4994293;28;20082;-89
2022/08/08 13:53:06;;;;;;;1.42;0.60;;;;;;;;;;4996491;28;20069;-92
2022/08/08 13:56:01;;;;;;;1.75;0.88;;;;;;;;;;5010436;28;20121;-87
2022/08/08 13:58:29;;;;;;;1.77;0.70;;;;;;;;;;4994636;28;20065;-86
2022/08/08 14:00:56;;;;;;;2.30;0.60;;;;;;;;;;4994572;28;20046;-87
2022/08/08 14:03:27;;;;;;;0.63;0.63;;;;;;;;;;4994570;28;20141;-89
2022/08/08 14:06:15;;;;;;;3.08;0.90;;;;;;;;;;4994424;28;20113;-87
2022/08/08 14:08:59;;;;;;;1.90;0.68;;;;;;;;;;4994549;28;20046;-89
2022/08/08 14:11:47;;;;;;;2.25;0.60;;;;;;;;;;4994838;28;20050;-89
2022/08/08 14:14:15;;;;;;;2.65;0.70;;;;;;;;;;4993931;28;20133;-89
2022/08/08 14:16:53;;;;;;;1.85;0.60;;;;;;;;;;4994350;28;20052;-89
2022/08/08 14:19:30;;;;;;;1.17;0.55;;;;;;;;;;4994630;28;20054;-89
2022/08/08 14:22:19;;;;;;;3.28;0.88;;;;;;;;;;4995100;28;20118;-89
2022/08/08 14:24:49;;;;;;;1.75;0.70;;;;;;;;;;4994615;28;20046;-87
2022/08/08 14:27:25;;;;;;;2.22;0.70;;;;;;;;;;4995465;28;20392;-90
2022/08/08 14:30:02;;;;;;;3.40;0.70;;;;;;;;;;4995854;28;20126;-91
2022/08/08 14:32:50;;;;;;;0.68;0.60;;;;;;;;;;4994431;28;20054;-87
2022/08/08 14:35:20;;;;;;;2.20;0.70;;;;;;;;;;4993799;28;20069;-87
2022/08/08 14:37:49;;;;;;;0.60;0.60;;;;;;;;;;4997388;28;20292;-91
2022/08/08 14:40:28;;;;;;;1.13;0.70;;;;;;;;;;4994433;28;20410;-92
2022/08/08 14:42:58;;;;;;;0.70;0.60;;;;;;;;;;4994244;28;20050;-85
2022/08/08 14:45:29;;;;;;;3.75;0.90;;;;;;;;;;4993858;28;20060;-89
2022/08/08 14:48:16;;;;;;;2.35;0.80;;;;;;;;;;4994970;28;20050;-89
2022/08/08 14:51:05;;;;;;;1.90;0.50;;;;;;;;;;4995089;28;20112;-90
2022/08/08 14:53:36;;;;;;;2.47;0.60;;;;;;;;;;4995107;28;20149;-91
2022/08/08 14:56:22;;;;;;;1.42;0.60;;;;;;;;;;4994962;28;20046;-89
2022/08/08 14:58:51;;;;;;;2.47;0.52;;;;;;;;;;4994479;28;20471;-88
2022/08/08 15:01:30;;;;;;;2.47;0.98;;;;;;;;;;4993049;28;20061;-88
2022/08/08 15:04:08;;;;;;;2.30;1.00;;;;;;;;;;4993978;28;20054;-92
2022/08/08 15:06:36;;;;;;;3.65;1.00;;;;;;;;;;4993838;28;20054;-85
2022/08/08 15:09:05;;;;;;;3.45;0.77;;;;;;;;;;4993892;28;20435;-87
2022/08/08 15:11:33;;;;;;;3.20;0.80;;;;;;;;;;4994432;28;20061;-88
2022/08/08 15:14:12;;;;;;;2.28;0.70;;;;;;;;;;5003999;28;20055;-83
2022/08/08 15:16:41;;;;;;;0.70;0.70;;;;;;;;;;5003126;28;20057;-87
2022/08/08 15:19:10;;;;;;;2.35;0.80;;;;;;;;;;4993242;28;20515;-90
2022/08/08 15:21:41;;;;;;;1.63;0.65;;;;;;;;;;4993265;28;20059;-89
2022/08/08 15:24:09;;;;;;;0.88;0.70;;;;;;;;;;4993194;28;20120;-90
2022/08/08 15:26:40;;;;;;;1.73;0.70;;;;;;;;;;4993341;28;20491;-87
2022/08/08 15:29:07;;;;;;;4.03;0.73;;;;;;;;;;4993873;28;20133;-93
2022/08/08 15:31:36;;;;;;;0.82;0.82;;;;;;;;;;4992926;28;20104;-89
2022/08/08 15:34:23;;;;;;;1.48;0.73;;;;;;;;;;4993308;28;20054;-87
2022/08/08 15:36:58;;;;;;;1.33;0.70;;;;;;;;;;4993305;28;20140;-88
2022/08/08 15:39:30;;;;;;;3.90;0.80;;;;;;;;;;4993605;28;20133;-86
2022/08/08 15:42:05;;;;;;;1.92;0.80;;;;;;;;;;4992575;28;20042;-89
2022/08/08 15:44:39;;;;;;;1.80;0.70;;;;;;;;;;4993381;28;20126;-92
2022/08/08 15:47:08;;;;;;;0.65;0.65;;;;;;;;;;4993414;28;20050;-88
2022/08/08 15:49:45;;;;;;;3.00;1.10;;;;;;;;;;4993189;28;20112;-89
2022/08/08 15:52:15;;;;;;;3.30;0.90;;;;;;;;;;4992785;28;20503;-89
2022/08/08 15:54:44;;;;;;;2.15;0.90;;;;;;;;;;4992827;28;20113;-88
2022/08/08 15:57:14;;;;;;;2.25;0.70;;;;;;;;;;4992932;28;20537;-90
2022/08/08 15:59:42;;;;;;;0.80;0.80;;;;;;;;;;4993008;28;20050;-88